createdAt,value
2022-10-04T00:02:03.094Z,100240.06
2022-10-04T00:06:12.573Z,100245.03
2022-10-04T00:10:22.218Z,100238.50
2022-10-04T00:14:32.448Z,100236.41
2022-10-04T00:18:40.532Z,100235.41
2022-10-04T00:23:20.556Z,100232.00
2022-10-04T00:27:25.290Z,100228.84
2022-10-04T00:31:29.223Z,100225.28
2022-10-04T00:35:31.153Z,100216.16
2022-10-04T00:39:32.723Z,100214.88
2022-10-04T00:43:47.012Z,100213.28
2022-10-04T00:47:48.630Z,100211.03
2022-10-04T00:51:56.215Z,100216.38
2022-10-04T00:56:05.081Z,100216.38
2022-10-04T01:00:19.199Z,100221.72
2022-10-04T01:04:39.417Z,100209.06
2022-10-04T01:08:49.408Z,100213.19
2022-10-04T01:13:07.997Z,100211.31
2022-10-04T01:17:10.019Z,100211.13
2022-10-04T01:21:20.948Z,100196.69
2022-10-04T01:25:50.997Z,100202.41
2022-10-04T01:29:52.839Z,100199.19
2022-10-04T01:33:55.727Z,100205.97
2022-10-04T01:37:57.430Z,100211.59
2022-10-04T01:42:09.318Z,100209.25
2022-10-04T01:46:20.486Z,100200.63
2022-10-04T01:50:37.677Z,100207.47
2022-10-04T01:54:44.899Z,100212.91
2022-10-04T01:58:52.353Z,100208.41
2022-10-04T02:03:04.956Z,100213.38
2022-10-04T02:07:15.325Z,100213.84
2022-10-04T02:11:20.471Z,100214.38
2022-10-04T02:15:26.778Z,100213.84
2022-10-04T02:19:35.873Z,100207.94
2022-10-04T02:23:39.486Z,100203.78
2022-10-04T02:27:41.353Z,100205.41
2022-10-04T02:32:02.712Z,100204.25
2022-10-04T02:36:09.535Z,100193.97
2022-10-04T02:40:21.637Z,100188.03
2022-10-04T02:44:32.189Z,100196.00
2022-10-04T02:48:48.471Z,100193.47
2022-10-04T02:52:58.547Z,100199.19
2022-10-04T02:57:01.282Z,100196.84
2022-10-04T03:01:03.089Z,100195.56
2022-10-04T03:05:08.667Z,100194.22
2022-10-04T03:09:10.546Z,100194.53
2022-10-04T03:13:13.994Z,100198.09
2022-10-04T03:17:17.143Z,100196.38
2022-10-04T03:27:31.168Z,100202.50
2022-10-04T03:31:35.013Z,100200.72
2022-10-04T03:35:39.273Z,100203.44
2022-10-04T03:39:53.674Z,100208.22
2022-10-04T03:43:57.890Z,100204.00
2022-10-04T03:48:06.893Z,100218.13
2022-10-04T03:52:21.062Z,100218.44
2022-10-04T03:56:29.533Z,100228.63
2022-10-04T04:00:31.541Z,100222.84
2022-10-04T04:04:36.342Z,100225.28
2022-10-04T04:08:42.781Z,100227.03
2022-10-04T04:12:55.438Z,100228.09
2022-10-04T04:17:17.334Z,100230.88
2022-10-04T04:21:23.669Z,100225.44
2022-10-04T04:25:27.390Z,100234.84
2022-10-04T04:29:42.087Z,100238.38
2022-10-04T04:33:49.361Z,100238.00
2022-10-04T04:38:14.399Z,100240.81
2022-10-04T04:42:21.242Z,100241.84
2022-10-04T04:46:27.479Z,100234.84
2022-10-04T04:50:34.286Z,100244.75
2022-10-04T04:54:38.907Z,100253.47
2022-10-04T04:58:45.926Z,100253.47
2022-10-04T05:02:58.606Z,100256.50
2022-10-04T05:07:17.057Z,100265.97
2022-10-04T05:11:21.589Z,100260.97
2022-10-04T05:15:23.753Z,100265.78
2022-10-04T05:19:40.074Z,100270.59
2022-10-04T05:23:42.592Z,100278.38
2022-10-04T05:27:45.131Z,100277.59
2022-10-04T05:32:11.051Z,100274.50
2022-10-04T05:36:13.962Z,100289.84
2022-10-04T05:40:39.435Z,100282.38
2022-10-04T05:44:53.909Z,100294.84
2022-10-04T05:49:06.311Z,100295.97
2022-10-04T05:53:20.188Z,100307.75
2022-10-04T05:57:42.577Z,100311.31
2022-10-04T06:02:04.770Z,100297.13
2022-10-04T06:06:19.906Z,100317.28
2022-10-04T06:11:05.505Z,100307.25
2022-10-04T06:15:23.178Z,100307.44
2022-10-04T06:19:53.659Z,100315.97
2022-10-04T06:24:03.722Z,100313.66
2022-10-04T06:28:28.686Z,100312.13
2022-10-04T06:32:52.147Z,100316.34
2022-10-04T06:37:15.766Z,100316.69
2022-10-04T06:41:20.424Z,100322.53
2022-10-04T06:45:31.367Z,100331.94
2022-10-04T06:49:46.884Z,100341.53
2022-10-04T06:53:54.604Z,100341.97
2022-10-04T06:58:29.926Z,100350.22
2022-10-04T07:02:40.861Z,100345.28
2022-10-04T07:06:52.928Z,100357.31
2022-10-04T07:10:56.853Z,100367.66
2022-10-04T07:15:03.222Z,100368.47
2022-10-04T07:19:17.382Z,100378.69
2022-10-04T07:23:28.634Z,100381.66
2022-10-04T07:28:26.522Z,100392.06
2022-10-04T07:32:31.419Z,100388.41
2022-10-04T07:36:48.160Z,100390.84
2022-10-04T07:40:56.062Z,100405.38
2022-10-04T07:45:21.481Z,100417.19
2022-10-04T07:49:23.733Z,100418.47
2022-10-04T07:53:28.225Z,100450.41
2022-10-04T07:57:40.280Z,100454.44
2022-10-04T08:01:58.109Z,100452.72
2022-10-04T08:06:19.041Z,100485.75
2022-10-04T08:10:31.428Z,100487.44
2022-10-04T08:14:52.468Z,100492.47
2022-10-04T08:19:00.144Z,100500.19
2022-10-04T08:23:08.106Z,100510.19
2022-10-04T08:27:29.715Z,100512.50
2022-10-04T08:32:00.739Z,100517.25
2022-10-04T08:36:19.757Z,100528.75
2022-10-04T08:40:51.804Z,100525.72
2022-10-04T08:45:34.789Z,100523.81
2022-10-04T08:50:18.111Z,100511.34
2022-10-04T08:55:02.442Z,100538.97
2022-10-04T08:59:35.896Z,100545.75
2022-10-04T09:04:35.020Z,100549.44
2022-10-04T09:09:24.500Z,100568.63
2022-10-04T09:13:38.509Z,100564.44
2022-10-04T09:17:50.926Z,100578.34
2022-10-04T09:22:16.153Z,100576.03
2022-10-04T09:26:45.587Z,100585.75
2022-10-04T09:31:28.546Z,100606.41
2022-10-04T09:35:43.585Z,100616.88
2022-10-04T09:40:16.532Z,100624.16
2022-10-04T09:44:49.296Z,100619.91
2022-10-04T09:49:08.819Z,100623.09
2022-10-04T09:53:35.256Z,100627.63
2022-10-04T09:58:13.855Z,100628.06
2022-10-04T10:02:45.389Z,100632.91
2022-10-04T10:07:10.430Z,100642.38
2022-10-04T10:11:42.758Z,100637.50
2022-10-04T10:15:59.930Z,100645.53
2022-10-04T10:20:27.102Z,100653.69
2022-10-04T10:24:56.173Z,100652.56
2022-10-04T10:29:15.105Z,100651.47
2022-10-04T10:33:54.576Z,100660.16
2022-10-04T10:38:19.456Z,100676.41
2022-10-04T10:42:42.923Z,100668.88
2022-10-04T10:47:22.791Z,100675.91
2022-10-04T10:51:34.530Z,100677.28
2022-10-04T10:56:08.590Z,100679.19
2022-10-04T11:00:21.108Z,100686.38
2022-10-04T11:04:38.800Z,100693.03
2022-10-04T11:09:17.999Z,100690.41
2022-10-04T11:13:29.177Z,100704.56
2022-10-04T11:18:09.229Z,100704.47
2022-10-04T11:22:17.212Z,100720.63
2022-10-04T11:26:37.695Z,100724.19
2022-10-04T11:31:04.063Z,100733.97
2022-10-04T11:35:39.385Z,100740.47
2022-10-04T11:39:53.557Z,100748.72
2022-10-04T11:44:22.005Z,100739.84
2022-10-04T11:48:48.572Z,100749.00
2022-10-04T11:53:33.538Z,100747.59
2022-10-04T11:57:53.273Z,100750.88
2022-10-04T12:02:17.043Z,100743.31
2022-10-04T12:06:34.967Z,100756.94
2022-10-04T12:11:17.645Z,100750.75
2022-10-04T12:15:38.487Z,100761.44
2022-10-04T12:19:58.640Z,100762.84
2022-10-04T12:24:03.339Z,100765.41
2022-10-04T12:28:21.527Z,100773.63
2022-10-04T12:32:34.252Z,100773.22
2022-10-04T12:36:54.309Z,100773.47
2022-10-04T12:41:26.273Z,100782.34
2022-10-04T12:45:45.238Z,100782.03
2022-10-04T12:49:47.073Z,100788.69
2022-10-04T12:54:17.261Z,100797.38
2022-10-04T12:58:30.119Z,100801.16
2022-10-04T13:03:04.537Z,100799.75
2022-10-04T13:07:29.487Z,100804.00
2022-10-04T13:12:01.448Z,100809.63
2022-10-04T13:21:00.191Z,100809.31
2022-10-04T13:25:26.554Z,100810.28
2022-10-04T13:29:41.323Z,100812.03
2022-10-04T13:34:00.113Z,100814.25
2022-10-04T13:38:35.641Z,100821.69
2022-10-04T13:43:12.638Z,100815.56
2022-10-04T13:47:28.915Z,100828.63
2022-10-04T13:51:47.101Z,100826.63
2022-10-04T13:56:40.333Z,100832.44
2022-10-04T14:01:39.585Z,100837.28
2022-10-04T14:05:44.242Z,100834.50
2022-10-04T14:10:04.122Z,100835.53
2022-10-04T14:14:19.600Z,100843.84
2022-10-04T14:18:55.411Z,100854.09
2022-10-04T14:36:26.865Z,100865.81
2022-10-04T14:41:12.900Z,100869.63
2022-10-04T14:45:40.477Z,100871.66
2022-10-04T14:50:03.161Z,100877.56
2022-10-04T14:54:36.817Z,100877.59
2022-10-04T14:58:53.835Z,100883.91
2022-10-04T15:03:05.789Z,100880.34
2022-10-04T15:07:31.809Z,100886.25
2022-10-04T15:12:21.663Z,100888.13
2022-10-04T15:16:28.769Z,100885.97
2022-10-04T15:20:47.278Z,100889.50
2022-10-04T15:24:51.255Z,100884.84
2022-10-04T15:29:06.646Z,100892.44
2022-10-04T15:33:30.765Z,100905.00
2022-10-04T15:37:45.984Z,100895.78
2022-10-04T15:42:07.989Z,100908.59
2022-10-04T15:46:40.521Z,100912.09
2022-10-04T15:51:07.399Z,100909.81
2022-10-04T15:55:30.264Z,100908.63
2022-10-04T15:59:53.434Z,100917.13
2022-10-04T16:04:21.613Z,100910.44
2022-10-04T16:08:48.551Z,100910.81
2022-10-04T16:13:14.227Z,100913.38
2022-10-04T16:17:46.830Z,100896.06
2022-10-04T16:21:54.470Z,100904.34
2022-10-04T16:26:09.457Z,100901.16
2022-10-04T16:30:27.228Z,100897.94
2022-10-04T16:34:45.462Z,100908.41
2022-10-04T16:39:09.618Z,100908.03
2022-10-04T16:43:26.984Z,100902.84
2022-10-04T16:47:38.257Z,100918.84
2022-10-04T16:51:55.824Z,100908.22
2022-10-04T16:56:09.569Z,100917.72
2022-10-04T17:00:38.375Z,100914.69
2022-10-04T17:05:18.596Z,100910.44
2022-10-04T17:09:47.569Z,100920.97
2022-10-04T17:14:06.773Z,100911.19
2022-10-04T17:18:38.582Z,100914.66
2022-10-04T17:23:23.351Z,100903.34
2022-10-04T17:27:45.286Z,100917.63
2022-10-04T17:32:16.378Z,100912.03
2022-10-04T17:36:33.570Z,100917.66
2022-10-04T17:40:47.703Z,100922.34
2022-10-04T17:45:11.731Z,100913.19
2022-10-04T17:50:01.628Z,100907.72
2022-10-04T17:54:29.085Z,100913.25
2022-10-04T17:58:53.729Z,100910.53
2022-10-04T18:03:19.377Z,100928.13
2022-10-04T18:07:44.048Z,100931.84
2022-10-04T18:11:52.400Z,100937.47
2022-10-04T18:16:31.457Z,100935.28
2022-10-04T18:20:58.573Z,100937.31
2022-10-04T18:25:26.196Z,100936.50
2022-10-04T18:29:43.090Z,100944.03
2022-10-04T18:33:51.276Z,100954.13
2022-10-04T18:38:11.685Z,100959.81
2022-10-04T18:42:29.714Z,100955.56
2022-10-04T18:46:40.118Z,100962.09
2022-10-04T18:50:47.260Z,100968.72
2022-10-04T18:55:07.634Z,100971.94
2022-10-04T18:59:54.765Z,100970.19
2022-10-04T19:04:02.451Z,100981.75
2022-10-04T19:08:41.826Z,100982.94
2022-10-04T19:13:06.030Z,100981.47
2022-10-04T19:17:21.302Z,100990.66
2022-10-04T19:21:36.810Z,100994.13
2022-10-04T19:26:19.081Z,100990.81
2022-10-04T19:30:52.190Z,100991.63
2022-10-04T19:35:32.758Z,100992.56
2022-10-04T19:40:09.302Z,100998.94
2022-10-04T19:44:36.885Z,101006.03
2022-10-04T19:48:50.029Z,101007.47
2022-10-04T19:52:57.474Z,101013.72
2022-10-04T19:57:02.196Z,101031.38
2022-10-04T20:01:14.041Z,101026.97
2022-10-04T20:05:25.493Z,101028.81
2022-10-04T20:09:51.695Z,101031.16
2022-10-04T20:14:02.678Z,101034.84
2022-10-04T20:18:32.213Z,101045.63
2022-10-04T20:22:55.527Z,101051.78
2022-10-04T20:27:01.345Z,101054.69
2022-10-04T20:31:06.550Z,101057.94
2022-10-04T20:35:32.631Z,101058.16
2022-10-04T20:39:40.724Z,101066.69
2022-10-04T20:44:01.869Z,101061.00
2022-10-04T20:48:13.101Z,101068.22
2022-10-04T20:52:15.523Z,101073.25
2022-10-04T20:56:30.446Z,101071.69
2022-10-04T21:00:34.646Z,101077.91
2022-10-04T21:04:44.282Z,101084.56
2022-10-04T21:08:47.234Z,101086.81
2022-10-04T21:12:50.050Z,101085.28
2022-10-04T21:16:56.535Z,101087.00
2022-10-04T21:21:01.970Z,101092.63
2022-10-04T21:25:06.467Z,101088.75
2022-10-04T21:29:08.769Z,101095.34
2022-10-04T21:33:10.496Z,101106.28
2022-10-04T21:37:12.391Z,101107.06
2022-10-04T21:41:14.043Z,101116.91
2022-10-04T21:45:16.127Z,101108.88
2022-10-04T21:49:17.728Z,101105.38
2022-10-04T21:53:20.104Z,101086.25
2022-10-04T21:57:23.989Z,101099.44
2022-10-04T22:01:25.948Z,101095.88
2022-10-04T22:05:27.663Z,101100.34
2022-10-04T22:09:29.833Z,101098.94
2022-10-04T22:13:31.638Z,101098.41
2022-10-04T22:17:33.804Z,101110.97
2022-10-04T22:21:35.542Z,101119.06
2022-10-04T22:25:37.402Z,101139.81
2022-10-04T22:29:39.354Z,101139.44
2022-10-04T22:33:43.513Z,101143.22
2022-10-04T22:37:46.413Z,101146.81
2022-10-04T22:41:54.089Z,101159.66
2022-10-04T22:45:56.195Z,101165.66
2022-10-04T22:49:58.284Z,101174.88
2022-10-04T22:54:00.391Z,101178.91
2022-10-04T22:58:03.169Z,101169.72
2022-10-04T23:02:16.148Z,101162.63
2022-10-04T23:06:18.013Z,101168.50
2022-10-04T23:10:19.930Z,101158.66
2022-10-04T23:14:21.898Z,101154.13
2022-10-04T23:18:23.558Z,101151.66
2022-10-04T23:22:28.383Z,101142.94
2022-10-04T23:26:38.528Z,101143.06
2022-10-04T23:30:40.837Z,101150.16
2022-10-04T23:34:46.584Z,101153.50
2022-10-04T23:38:54.162Z,101161.47
2022-10-04T23:42:56.869Z,101159.75
2022-10-04T23:46:59.061Z,101157.09
2022-10-04T23:51:00.992Z,101150.03
2022-10-04T23:55:10.691Z,101143.59
2022-10-04T23:59:17.355Z,101143.00
